Saturday, May 26, 2018, 8:14 AM EDT

KEZF, Fredericksburg, Shannon Airport

Location: Fredericksburg, VA, United States Lat: 38.267
Local Time: 8:14 AM EDT (12:14 GMT) Lon: -77.45
Time Zone: US/Eastern Elev: 85 ft

Show me the last for .
Show Decoded

2018-05-26 07:35 METAR KEZF 261135Z AUTO 22007KT 10SM SCT110 23/20 A2989 RMK AO2 T02290200 =
2018-05-26 07:15 METAR KEZF 261115Z AUTO 21006KT 10SM SCT120 23/20 A2990 RMK AO2 T02270200 =
2018-05-26 06:55 METAR KEZF 261055Z AUTO 22006KT 10SM BKN120 23/20 A2989 RMK AO2 T02250197 =
2018-05-26 06:35 METAR KEZF 261035Z AUTO 21005KT 10SM SCT120 22/20 A2989 RMK AO2 T02200196 =
2018-05-26 06:15 METAR KEZF 261015Z AUTO 19006KT 10SM OVC120 22/20 A2989 RMK AO2 T02190196 =
2018-05-26 05:55 METAR KEZF 260955Z AUTO 22003KT 10SM OVC120 22/20 A2989 RMK AO2 T02180195 =
2018-05-26 05:35 METAR KEZF 260935Z AUTO 00000KT 10SM BKN110 22/20 A2988 RMK AO2 T02180195 =
2018-05-26 05:15 METAR KEZF 260915Z AUTO 20006KT 10SM CLR 22/20 A2988 RMK AO2 T02200196 =
2018-05-26 04:55 METAR KEZF 260855Z AUTO 21007KT 10SM CLR 22/20 A2988 RMK AO2 T02200195 =
2018-05-26 04:35 METAR KEZF 260835Z AUTO 21007KT 10SM CLR 22/20 A2988 RMK AO2 T02210196 =
2018-05-26 04:15 METAR KEZF 260815Z AUTO 21005KT 10SM CLR 22/20 A2989 RMK AO2 T02220196 =
2018-05-26 03:55 METAR KEZF 260755Z AUTO 22006KT 10SM CLR 22/20 A2989 RMK AO2 T02220195 =
2018-05-26 03:35 METAR KEZF 260735Z AUTO 21007KT 10SM CLR 23/20 A2989 RMK AO2 T02250196 =
2018-05-26 03:15 METAR KEZF 260715Z AUTO 21006KT 10SM CLR 23/20 A2989 RMK AO2 T02260195 =
2018-05-26 02:55 METAR KEZF 260655Z AUTO 20005KT 10SM CLR 23/20 A2989 RMK AO2 T02300195 =
2018-05-26 02:35 METAR KEZF 260635Z AUTO 21007KT 10SM SCT100 23/20 A2990 RMK AO2 T02310195 =
2018-05-26 02:15 METAR KEZF 260615Z AUTO 21005KT 10SM OVC110 23/20 A2990 RMK AO2 T02320195 =
2018-05-26 01:55 METAR KEZF 260555Z AUTO 22006KT 10SM BKN120 23/20 A2990 RMK AO2 T02330195 10275
                 20233 403030143 =
2018-05-26 01:35 METAR KEZF 260535Z AUTO 21008KT 10SM SCT100 SCT110 24/19 A2990 RMK AO2 T02350194
                 =
2018-05-26 01:15 METAR KEZF 260515Z AUTO 21008KT 10SM SCT100 24/19 A2991 RMK AO2 T02360193 =
2018-05-26 00:55 METAR KEZF 260455Z AUTO 20008KT 10SM CLR 24/19 A2991 RMK AO2 T02360193 =
2018-05-26 00:35 METAR KEZF 260435Z AUTO 20005KT 10SM CLR 24/19 A2992 RMK AO2 T02390193 =
2018-05-26 00:15 METAR KEZF 260415Z AUTO 20007KT 10SM SCT100 24/19 A2992 RMK AO2 T02400193 =
2018-05-25 23:55 METAR KEZF 260355Z AUTO 21006KT 10SM BKN100 24/19 A2992 RMK AO2 T02440193 =
2018-05-25 23:35 METAR KEZF 260335Z AUTO 21006KT 10SM BKN100 25/19 A2992 RMK AO2 T02460193 =
2018-05-25 23:15 METAR KEZF 260315Z AUTO 20007KT 10SM CLR 25/19 A2992 RMK AO2 T02460192 =
2018-05-25 22:55 METAR KEZF 260255Z AUTO 20007KT 10SM CLR 25/19 A2993 RMK AO2 T02500192 =
2018-05-25 22:35 METAR KEZF 260235Z AUTO 20007KT 10SM CLR 25/19 A2993 RMK AO2 T02490193 =
2018-05-25 22:15 METAR KEZF 260215Z AUTO 20006KT 10SM CLR 25/19 A2993 RMK AO2 T02520193 =
2018-05-25 21:55 METAR KEZF 260155Z AUTO 19006KT 10SM CLR 25/20 A2992 RMK AO2 T02510195 =
2018-05-25 21:35 METAR KEZF 260135Z AUTO 19007KT 10SM CLR 25/20 A2993 RMK AO2 T02510198 =
2018-05-25 21:15 METAR KEZF 260115Z AUTO 18005KT 10SM CLR 26/20 A2993 RMK AO2 T02550198 =
2018-05-25 20:55 METAR KEZF 260055Z AUTO 18006KT 10SM CLR 26/20 A2991 RMK AO2 T02600198 =
2018-05-25 20:35 METAR KEZF 260035Z AUTO 18005KT 10SM CLR 26/20 A2992 RMK AO2 T02620200 =
2018-05-25 20:15 METAR KEZF 260015Z AUTO 17006KT 10SM CLR 27/20 A2991 RMK AO2 T02660200 =
2018-05-25 19:55 METAR KEZF 252355Z AUTO 19005KT 10SM CLR 28/20 A2991 RMK AO2 T02750200 10303
                 20275 =
2018-05-25 19:35 METAR KEZF 252335Z AUTO 19008KT 10SM CLR 28/20 A2991 RMK AO2 T02810199 =
2018-05-25 19:15 METAR KEZF 252315Z AUTO 19008KT 10SM CLR 29/20 A2991 RMK AO2 T02850199 =
2018-05-25 18:55 METAR KEZF 252255Z AUTO 20007KT 10SM CLR 29/20 A2991 RMK AO2 T02900200 =
2018-05-25 18:35 METAR KEZF 252235Z AUTO 19008KT 10SM SCT046 29/20 A2991 RMK AO2 T02940197 =
2018-05-25 18:15 METAR KEZF 252215Z AUTO 19012KT 10SM SCT046 30/20 A2992 RMK AO2 T02960199 =
2018-05-25 17:55 METAR KEZF 252155Z AUTO 20011G14KT 10SM CLR 30/20 A2992 RMK AO2 T03000199 =
2018-05-25 17:35 METAR KEZF 252135Z AUTO 19009G12KT 10SM SCT046 SCT055 30/20 A2993 RMK AO2
                 T02960196 =
2018-05-25 17:15 METAR KEZF 252115Z AUTO 20010G14KT 10SM SCT046 SCT060 BKN065 30/20 A2993 RMK AO2
                 T03020200 =
2018-05-25 16:55 METAR KEZF 252055Z AUTO 19010G15KT 10SM BKN046 BKN060 30/20 A2994 RMK AO2
                 T03010199 =
2018-05-25 16:35 METAR KEZF 252035Z AUTO 20011KT 10SM BKN046 BKN060 30/20 A2994 RMK AO2 T03010197
                 =
2018-05-25 16:15 METAR KEZF 252015Z AUTO 20010G14KT 10SM SCT046 SCT060 30/20 A2995 RMK AO2
                 T03010198 =
2018-05-25 15:55 METAR KEZF 251955Z AUTO 19010G14KT 10SM SCT046 BKN060 30/20 A2996 RMK AO2
                 T03000197 =
2018-05-25 15:35 METAR KEZF 251935Z AUTO 22012G16KT 10SM BKN044 BKN050 30/20 A2996 RMK AO2
                 T02990198 =
2018-05-25 15:15 METAR KEZF 251915Z AUTO 20012G23KT 10SM SCT044 SCT050 30/19 A2997 RMK AO2
                 T02990194 =
2018-05-25 14:55 METAR KEZF 251855Z AUTO 22007KT 10SM SCT044 BKN050 29/20 A2997 RMK AO2 T02930199
                 =
2018-05-25 14:35 METAR KEZF 251835Z AUTO 22011G16KT 10SM BKN044 BKN055 29/20 A2999 RMK AO2
                 T02920196 =
2018-05-25 14:15 METAR KEZF 251815Z AUTO 19012G15KT 10SM SCT041 29/20 A2999 RMK AO2 T02920197 =
2018-05-25 13:55 METAR KEZF 251755Z AUTO 23008G16KT 210V270 10SM SCT039 SCT049 29/20 A3000 RMK
                 AO2 T02910197 10295 20182 =
2018-05-25 13:35 METAR KEZF 251735Z AUTO 20010KT 10SM BKN039 BKN049 29/20 A3001 RMK AO2 T02880198
                 =
2018-05-25 13:15 METAR KEZF 251715Z AUTO 21010G18KT 10SM BKN039 BKN047 BKN050 29/20 A3002 RMK AO2
                 T02870196 =
2018-05-25 12:55 METAR KEZF 251655Z AUTO 21010G15KT 10SM BKN039 BKN048 BKN055 29/20 A3003 RMK AO2
                 T02860199 =
2018-05-25 12:35 METAR KEZF 251635Z AUTO 24008G17KT 210V280 10SM SCT037 28/20 A3003 RMK AO2
                 T02830195 =
2018-05-25 12:15 METAR KEZF 251615Z AUTO 23009KT 10SM SCT037 29/19 A3004 RMK AO2 T02850193 =
2018-05-25 11:55 METAR KEZF 251555Z AUTO 22011G15KT 10SM SCT037 28/20 A3005 RMK AO2 T02800195 =
2018-05-25 11:35 METAR KEZF 251535Z AUTO 20006KT 10SM CLR 28/19 A3006 RMK AO2 T02800193 =
2018-05-25 11:15 METAR KEZF 251515Z AUTO 20009KT 10SM CLR 28/18 A3006 RMK AO2 T02770182 =
2018-05-25 10:55 METAR KEZF 251455Z AUTO 19007KT 10SM CLR 28/18 A3006 RMK AO2 T02760181 =
2018-05-25 10:35 METAR KEZF 251435Z AUTO 17006KT 10SM CLR 27/18 A3007 RMK AO2 T02710180 =
2018-05-25 10:15 METAR KEZF 251415Z AUTO 23007KT 10SM CLR 26/18 A3008 RMK AO2 T02640178 =
2018-05-25 09:55 METAR KEZF 251355Z AUTO 18003KT 10SM CLR 26/18 A3008 RMK AO2 T02550182 =
2018-05-25 09:35 METAR KEZF 251335Z AUTO 18004KT 10SM CLR 24/18 A3009 RMK AO2 T02430180 =
2018-05-25 09:15 METAR KEZF 251315Z AUTO 20005KT 10SM CLR 23/18 A3009 RMK AO2 T02300175 =
2018-05-25 08:55 METAR KEZF 251255Z AUTO 20004KT 10SM CLR 22/17 A3009 RMK AO2 T02200171 =
2018-05-25 08:35 METAR KEZF 251235Z AUTO 21005KT 10SM CLR 21/17 A3010 RMK AO2 T02120170 =
2018-05-25 08:15 METAR KEZF 251215Z AUTO 00000KT 10SM CLR 20/17 A3010 RMK AO2 T01960173 =

Support USWX by starting your Amazon purchase here.